createdAt,value
2019-01-15T00:02:18.057Z,95625.80
2019-01-15T00:04:49.398Z,95625.50
2019-01-15T00:07:20.743Z,95628.77
2019-01-15T00:09:52.051Z,95626.50
2019-01-15T00:12:23.368Z,95626.50
2019-01-15T00:14:54.665Z,95636.82
2019-01-15T00:17:25.963Z,95630.01
2019-01-15T00:19:57.596Z,95641.09
2019-01-15T00:22:29.567Z,95641.72
2019-01-15T00:25:00.844Z,95640.83
2019-01-15T00:27:32.973Z,95647.87
2019-01-15T00:30:04.814Z,95648.50
2019-01-15T00:32:36.197Z,95655.67
2019-01-15T00:35:08.588Z,95663.08
2019-01-15T00:37:39.849Z,95660.04
2019-01-15T00:40:13.837Z,95658.28
2019-01-15T00:42:45.332Z,95659.74
2019-01-15T00:45:16.639Z,95663.64
2019-01-15T00:47:47.947Z,95670.35
2019-01-15T00:50:19.255Z,95674.74
2019-01-15T00:52:50.742Z,95676.16
2019-01-15T00:55:22.021Z,95673.76
2019-01-15T00:57:53.807Z,95680.70
2019-01-15T01:00:25.492Z,95679.99
2019-01-15T01:02:56.750Z,95683.81
2019-01-15T01:05:28.044Z,95687.93
2019-01-15T01:07:59.745Z,95690.80
2019-01-15T01:10:31.061Z,95682.00
2019-01-15T01:13:02.435Z,95693.58
2019-01-15T01:15:33.992Z,95690.44
2019-01-15T01:18:05.755Z,95700.84
2019-01-15T01:20:37.300Z,95697.77
2019-01-15T01:23:08.688Z,95690.33
2019-01-15T01:25:40.058Z,95685.29
2019-01-15T01:28:11.542Z,95682.14
2019-01-15T01:30:42.827Z,95681.95
2019-01-15T01:33:14.175Z,95690.30
2019-01-15T01:35:45.464Z,95698.02
2019-01-15T01:38:16.673Z,95702.07
2019-01-15T01:40:48.317Z,95702.65
2019-01-15T01:43:19.697Z,95711.69
2019-01-15T01:45:50.974Z,95718.37
2019-01-15T01:48:22.537Z,95719.72
2019-01-15T01:50:53.759Z,95718.34
2019-01-15T01:53:25.862Z,95724.31
2019-01-15T01:55:57.863Z,95719.17
2019-01-15T01:58:31.144Z,95723.77
2019-01-15T02:01:02.442Z,95720.88
2019-01-15T02:03:33.677Z,95721.43
2019-01-15T02:06:04.926Z,95715.84
2019-01-15T02:08:36.144Z,95721.98
2019-01-15T02:11:07.604Z,95724.13
2019-01-15T02:13:38.823Z,95728.72
2019-01-15T02:16:10.128Z,95732.47
2019-01-15T02:18:41.469Z,95722.31
2019-01-15T02:21:12.659Z,95722.12
2019-01-15T02:23:44.217Z,95726.45
2019-01-15T02:26:15.453Z,95721.52
2019-01-15T02:28:46.798Z,95723.14
2019-01-15T02:31:17.995Z,95730.32
2019-01-15T02:33:49.235Z,95721.23
2019-01-15T02:36:20.503Z,95723.97
2019-01-15T02:38:51.869Z,95724.58
2019-01-15T02:41:23.655Z,95704.45
2019-01-15T02:43:55.193Z,95708.12
2019-01-15T02:46:26.834Z,95724.13
2019-01-15T02:48:58.168Z,95713.33
2019-01-15T02:51:29.369Z,95713.64
2019-01-15T02:54:00.569Z,95715.27
2019-01-15T02:56:32.100Z,95719.28
2019-01-15T02:59:03.330Z,95727.80
2019-01-15T03:01:34.575Z,95710.70
2019-01-15T03:04:05.784Z,95713.86
2019-01-15T03:06:37.425Z,95717.55
2019-01-15T03:09:09.203Z,95708.41
2019-01-15T03:11:40.460Z,95719.16
2019-01-15T03:14:11.673Z,95709.04
2019-01-15T03:16:43.336Z,95707.39
2019-01-15T03:19:14.786Z,95713.80
2019-01-15T03:21:46.021Z,95715.63
2019-01-15T03:24:17.294Z,95718.91
2019-01-15T03:26:48.531Z,95721.20
2019-01-15T03:29:19.749Z,95724.97
2019-01-15T03:31:50.986Z,95720.49
2019-01-15T03:34:22.239Z,95718.02
2019-01-15T03:36:53.467Z,95711.06
2019-01-15T03:39:24.677Z,95707.39
2019-01-15T03:41:56.140Z,95706.70
2019-01-15T03:44:27.456Z,95703.06
2019-01-15T03:46:58.779Z,95713.52
2019-01-15T03:49:30.002Z,95724.97
2019-01-15T03:52:01.273Z,95710.05
2019-01-15T03:54:32.498Z,95712.95
2019-01-15T03:57:03.760Z,95721.55
2019-01-15T03:59:35.428Z,95724.84
2019-01-15T04:02:06.647Z,95725.53
2019-01-15T04:04:38.154Z,95729.38
2019-01-15T04:07:09.851Z,95731.39
2019-01-15T04:09:41.179Z,95727.36
2019-01-15T04:12:13.387Z,95728.98
2019-01-15T04:14:44.603Z,95717.17
2019-01-15T04:17:16.107Z,95720.88
2019-01-15T04:19:47.438Z,95722.03
2019-01-15T04:22:18.716Z,95723.16
2019-01-15T04:24:49.917Z,95709.44
2019-01-15T04:27:21.169Z,95713.41
2019-01-15T04:29:52.734Z,95709.74
2019-01-15T04:32:23.982Z,95706.59
2019-01-15T04:34:55.328Z,95707.75
2019-01-15T04:37:26.568Z,95711.38
2019-01-15T04:39:57.798Z,95723.64
2019-01-15T04:42:29.044Z,95719.70
2019-01-15T04:45:00.661Z,95717.17
2019-01-15T04:47:31.869Z,95716.71
2019-01-15T04:50:03.099Z,95725.40
2019-01-15T04:52:34.640Z,95726.66
2019-01-15T04:55:07.013Z,95740.50
2019-01-15T04:57:38.283Z,95735.09
2019-01-15T05:00:15.637Z,95744.97
2019-01-15T05:02:47.739Z,95739.83
2019-01-15T05:05:19.241Z,95752.91
2019-01-15T05:07:50.594Z,95748.56
2019-01-15T05:10:21.930Z,95761.02
2019-01-15T05:12:53.377Z,95759.96
2019-01-15T05:15:24.565Z,95763.23
2019-01-15T05:17:55.788Z,95765.63
2019-01-15T05:20:27.065Z,95755.42
2019-01-15T05:22:58.268Z,95759.39
2019-01-15T05:25:29.591Z,95761.98
2019-01-15T05:28:00.815Z,95764.55
2019-01-15T05:30:32.066Z,95769.89
2019-01-15T05:33:03.284Z,95773.16
2019-01-15T05:35:34.546Z,95777.23
2019-01-15T05:38:05.749Z,95774.35
2019-01-15T05:40:36.941Z,95782.46
2019-01-15T05:43:08.335Z,95786.02
2019-01-15T05:45:42.500Z,95786.12
2019-01-15T05:48:23.058Z,95787.27
2019-01-15T05:51:08.182Z,95796.00
2019-01-15T05:53:39.381Z,95792.36
2019-01-15T05:56:10.671Z,95803.17
2019-01-15T05:58:42.049Z,95806.84
2019-01-15T06:01:13.338Z,95809.52
2019-01-15T06:03:44.999Z,95815.33
2019-01-15T06:06:16.259Z,95816.72
2019-01-15T06:08:49.069Z,95819.09
2019-01-15T06:11:20.253Z,95834.53
2019-01-15T06:13:51.516Z,95834.77
2019-01-15T06:16:22.743Z,95844.09
2019-01-15T06:18:54.070Z,95835.34
2019-01-15T06:21:25.273Z,95849.09
2019-01-15T06:23:56.583Z,95845.68
2019-01-15T06:26:29.459Z,95839.57
2019-01-15T06:29:00.735Z,95853.73
2019-01-15T06:31:32.317Z,95852.80
2019-01-15T06:34:03.533Z,95849.59
2019-01-15T06:36:34.740Z,95850.39
2019-01-15T06:39:08.812Z,95855.06
2019-01-15T06:41:40.071Z,95855.81
2019-01-15T06:44:11.384Z,95867.30
2019-01-15T06:46:42.685Z,95872.56
2019-01-15T06:49:14.012Z,95863.31
2019-01-15T06:51:45.363Z,95870.54
2019-01-15T06:54:16.634Z,95873.19
2019-01-15T06:56:48.256Z,95888.17
2019-01-15T06:59:19.501Z,95906.63
2019-01-15T07:01:50.751Z,95905.44
2019-01-15T07:04:23.109Z,95907.77
2019-01-15T07:06:54.381Z,95905.01
2019-01-15T07:09:25.768Z,95919.62
2019-01-15T07:11:57.076Z,95924.27
2019-01-15T07:14:28.305Z,95936.73
2019-01-15T07:16:59.536Z,95944.92
2019-01-15T07:19:30.815Z,95936.64
2019-01-15T07:22:02.047Z,95941.84
2019-01-15T07:24:33.275Z,95946.84
2019-01-15T07:27:04.984Z,95953.02
2019-01-15T07:29:36.286Z,95953.02
2019-01-15T07:32:07.578Z,95946.52
2019-01-15T07:34:38.780Z,95955.53
2019-01-15T07:37:10.068Z,95965.15
2019-01-15T07:39:41.448Z,95970.39
2019-01-15T07:42:12.799Z,95968.50
2019-01-15T07:44:44.144Z,95977.29
2019-01-15T07:47:15.437Z,95993.84
2019-01-15T07:49:46.758Z,96003.29
2019-01-15T07:52:17.973Z,96009.16
2019-01-15T07:54:49.165Z,96016.42
2019-01-15T07:57:20.431Z,96024.22
2019-01-15T07:59:51.720Z,96020.02
2019-01-15T08:02:23.228Z,96027.44
2019-01-15T08:04:56.046Z,96029.70
2019-01-15T08:07:27.280Z,96037.86
2019-01-15T08:09:58.606Z,96028.64
2019-01-15T08:12:29.821Z,96029.66
2019-01-15T08:15:01.011Z,96038.73
2019-01-15T08:17:32.333Z,96027.01
2019-01-15T08:20:03.646Z,96025.35
2019-01-15T08:22:34.850Z,96025.35
2019-01-15T08:25:06.649Z,96027.31
2019-01-15T08:27:37.868Z,96031.69
2019-01-15T08:30:13.996Z,96027.21
2019-01-15T08:32:45.224Z,96027.70
2019-01-15T08:35:16.519Z,96045.36
2019-01-15T08:37:47.797Z,96038.42
2019-01-15T08:40:19.126Z,96037.99
2019-01-15T08:42:50.351Z,96031.63
2019-01-15T08:45:21.909Z,96044.86
2019-01-15T08:47:56.777Z,96042.90
2019-01-15T08:50:28.023Z,96059.36
2019-01-15T08:52:59.392Z,96055.94
2019-01-15T08:55:30.701Z,96048.91
2019-01-15T08:58:02.560Z,96059.59
2019-01-15T09:00:33.838Z,96058.98
2019-01-15T09:03:05.675Z,96075.33
2019-01-15T09:05:36.883Z,96093.61
2019-01-15T09:08:08.122Z,96079.17
2019-01-15T09:10:39.330Z,96068.82
2019-01-15T09:13:10.644Z,96076.45
2019-01-15T09:15:41.911Z,96080.11
2019-01-15T09:18:13.201Z,96091.72
2019-01-15T09:20:44.438Z,96081.63
2019-01-15T09:23:15.708Z,96081.23
2019-01-15T09:25:46.928Z,96077.78
2019-01-15T09:28:18.203Z,96069.81
2019-01-15T09:30:49.479Z,96076.25
2019-01-15T09:33:20.682Z,96092.09
2019-01-15T09:35:51.895Z,96084.02
2019-01-15T09:38:23.104Z,96084.02
2019-01-15T09:40:54.325Z,96085.28
2019-01-15T09:43:25.556Z,96081.63
2019-01-15T09:45:57.340Z,96078.14
2019-01-15T09:48:35.383Z,96072.91
2019-01-15T09:51:06.699Z,96072.73
2019-01-15T09:53:37.915Z,96067.13
2019-01-15T09:56:09.207Z,96062.12
2019-01-15T09:58:40.532Z,96072.54
2019-01-15T10:01:11.786Z,96070.95
2019-01-15T10:03:42.975Z,96069.31
2019-01-15T10:06:14.203Z,96067.86
2019-01-15T10:08:45.519Z,96076.31
2019-01-15T10:11:16.758Z,96068.89
2019-01-15T10:13:48.027Z,96080.11
2019-01-15T10:16:19.568Z,96073.23
2019-01-15T10:18:50.802Z,96060.72
2019-01-15T10:21:22.046Z,96060.48
2019-01-15T10:23:53.234Z,96060.02
2019-01-15T10:26:24.911Z,96051.40
2019-01-15T10:28:56.220Z,96047.68
2019-01-15T10:32:10.938Z,96059.66
2019-01-15T10:34:44.291Z,96052.46
2019-01-15T10:37:15.696Z,96040.68
2019-01-15T10:39:47.089Z,96042.38
2019-01-15T10:42:18.363Z,96022.17
2019-01-15T10:44:49.745Z,96045.16
2019-01-15T10:47:20.980Z,96025.25
2019-01-15T10:49:52.246Z,96014.66
2019-01-15T10:52:23.855Z,96013.77
2019-01-15T10:54:55.191Z,96022.09
2019-01-15T10:57:27.522Z,96016.91
2019-01-15T10:59:58.801Z,96001.72
2019-01-15T11:02:30.658Z,96010.75
2019-01-15T11:05:01.930Z,96009.41
2019-01-15T11:07:33.108Z,95999.13
2019-01-15T11:10:05.143Z,95996.73
2019-01-15T11:12:36.839Z,96003.88
2019-01-15T11:15:09.052Z,95996.50
2019-01-15T11:17:41.534Z,95989.55
2019-01-15T11:20:16.110Z,95988.66
2019-01-15T11:22:47.419Z,95981.56
2019-01-15T11:25:18.769Z,95970.75
2019-01-15T11:27:50.071Z,95991.30
2019-01-15T11:30:21.318Z,95981.20
2019-01-15T11:32:52.987Z,95979.80
2019-01-15T11:35:24.210Z,95981.56
2019-01-15T11:37:55.433Z,95986.39
2019-01-15T11:40:26.755Z,95982.71
2019-01-15T11:42:58.095Z,95979.69
2019-01-15T11:45:29.303Z,95984.66
2019-01-15T11:48:02.446Z,95992.92
2019-01-15T11:50:34.211Z,95982.25
2019-01-15T11:53:05.682Z,95996.34
2019-01-15T11:55:37.196Z,96012.10
2019-01-15T11:58:08.423Z,95972.84
2019-01-15T12:00:43.453Z,95941.23
2019-01-15T12:03:29.250Z,95969.83
2019-01-15T12:06:35.010Z,95958.33
2019-01-15T12:09:28.565Z,95953.67
2019-01-15T12:12:17.595Z,95960.67
2019-01-15T12:15:10.859Z,95970.83
2019-01-15T12:17:58.619Z,95945.53
2019-01-15T12:20:51.668Z,95952.70
2019-01-15T12:23:40.704Z,95959.70
2019-01-15T12:26:30.426Z,95946.17
2019-01-15T12:29:30.317Z,95975.92
2019-01-15T12:32:19.486Z,95957.42
2019-01-15T12:35:24.630Z,95938.78
2019-01-15T12:38:18.184Z,95932.19
2019-01-15T12:41:10.373Z,95937.84
2019-01-15T12:43:59.634Z,95931.83
2019-01-15T12:47:08.223Z,95924.33
2019-01-15T12:50:09.607Z,95927.09
2019-01-15T12:52:58.399Z,95929.87
2019-01-15T12:55:47.687Z,95910.17
2019-01-15T12:58:33.726Z,95919.95
2019-01-15T13:01:23.333Z,95914.83
2019-01-15T13:04:19.933Z,95909.02
2019-01-15T13:07:13.947Z,95918.58
2019-01-15T13:10:07.085Z,95918.89
2019-01-15T13:13:09.863Z,95907.48
2019-01-15T13:16:00.073Z,95895.00
2019-01-15T13:18:46.186Z,95895.94
2019-01-15T13:21:39.299Z,95905.53
2019-01-15T13:24:33.124Z,95901.09
2019-01-15T13:27:25.284Z,95880.09
2019-01-15T13:30:21.266Z,95883.92
2019-01-15T13:33:17.681Z,95884.47
2019-01-15T13:36:13.670Z,95892.05
2019-01-15T13:39:06.813Z,95878.88
2019-01-15T13:42:06.317Z,95910.92
2019-01-15T13:45:02.659Z,95884.25
2019-01-15T13:47:51.498Z,95881.73
2019-01-15T13:50:44.733Z,95894.59
2019-01-15T13:53:41.535Z,95895.39
2019-01-15T13:56:31.891Z,95886.55
2019-01-15T13:59:21.630Z,95876.00
2019-01-15T14:02:14.792Z,95874.83
2019-01-15T14:04:59.162Z,95870.60
2019-01-15T14:07:49.296Z,95890.34
2019-01-15T14:10:42.515Z,95898.31
2019-01-15T14:13:48.108Z,95891.33
2019-01-15T14:16:44.485Z,95890.82
2019-01-15T14:19:42.072Z,95900.92
2019-01-15T14:22:35.348Z,95883.84
2019-01-15T14:25:42.865Z,95898.33
2019-01-15T14:28:21.558Z,95892.29
2019-01-15T14:31:30.110Z,95880.91
2019-01-15T14:34:29.629Z,95893.04
2019-01-15T14:37:28.733Z,95891.84
2019-01-15T14:40:27.927Z,95899.12
2019-01-15T14:43:36.648Z,95905.08
2019-01-15T14:46:25.018Z,95905.00
2019-01-15T14:49:21.227Z,95888.89
2019-01-15T14:52:03.124Z,95901.30
2019-01-15T14:54:49.407Z,95899.20
2019-01-15T14:57:37.636Z,95901.06
2019-01-15T15:00:40.743Z,95897.50
2019-01-15T15:03:36.191Z,95903.98
2019-01-15T15:06:32.478Z,95898.33
2019-01-15T15:09:42.801Z,95917.95
2019-01-15T15:12:31.522Z,95906.27
2019-01-15T15:15:24.622Z,95895.80
2019-01-15T15:18:13.584Z,95899.80
2019-01-15T15:20:58.943Z,95887.98
2019-01-15T15:23:50.789Z,95907.30
2019-01-15T15:26:50.313Z,95904.77
2019-01-15T15:29:46.450Z,95907.37
2019-01-15T15:32:32.529Z,95913.11
2019-01-15T15:35:24.964Z,95919.94
2019-01-15T15:38:12.919Z,95924.56
2019-01-15T15:41:11.223Z,95933.48
2019-01-15T15:44:09.888Z,95919.30
2019-01-15T15:47:18.430Z,95920.33
2019-01-15T15:50:08.294Z,95922.19
2019-01-15T15:53:04.494Z,95924.28
2019-01-15T15:55:57.309Z,95923.09
2019-01-15T15:58:47.649Z,95927.60
2019-01-15T16:01:34.325Z,95928.78
2019-01-15T16:04:23.094Z,95937.78
2019-01-15T16:07:12.088Z,95923.73
2019-01-15T16:10:01.115Z,95923.81
2019-01-15T16:12:41.269Z,95933.25
2019-01-15T16:15:40.238Z,95931.11
2019-01-15T16:18:28.827Z,95915.04
2019-01-15T16:21:14.481Z,95939.20
2019-01-15T16:24:04.607Z,95942.25
2019-01-15T16:26:47.805Z,95951.09
2019-01-15T16:29:37.061Z,95950.66
2019-01-15T16:32:29.999Z,95940.23
2019-01-15T16:35:23.524Z,95956.06
2019-01-15T16:38:24.050Z,95938.84
2019-01-15T16:41:17.388Z,95926.70
2019-01-15T16:44:01.887Z,95930.94
2019-01-15T16:47:04.176Z,95928.12
2019-01-15T16:50:00.546Z,95944.66
2019-01-15T16:52:50.808Z,95944.45
2019-01-15T16:55:59.502Z,95940.42
2019-01-15T16:58:51.046Z,95927.04
2019-01-15T17:01:33.545Z,95926.83
2019-01-15T17:04:26.944Z,95926.96
2019-01-15T17:07:20.475Z,95925.09
2019-01-15T17:10:11.669Z,95942.49
2019-01-15T17:13:05.795Z,95938.25
2019-01-15T17:16:08.300Z,95944.20
2019-01-15T17:19:17.117Z,95941.17
2019-01-15T17:21:59.862Z,95943.19
2019-01-15T17:24:50.339Z,95955.94
2019-01-15T17:27:40.483Z,95950.55
2019-01-15T17:30:29.089Z,95938.59
2019-01-15T17:33:12.605Z,95959.98
2019-01-15T17:36:18.036Z,95947.13
2019-01-15T17:39:11.456Z,95944.66
2019-01-15T17:42:04.467Z,95951.48
2019-01-15T17:44:53.212Z,95944.66
2019-01-15T17:47:43.489Z,95949.94
2019-01-15T17:50:51.105Z,95938.63
2019-01-15T17:53:53.227Z,95943.17
2019-01-15T17:56:55.498Z,95964.47
2019-01-15T17:59:44.327Z,95947.32
2019-01-15T18:02:40.298Z,95952.59
2019-01-15T18:05:29.666Z,95937.05
2019-01-15T18:08:18.627Z,95929.21
2019-01-15T18:11:14.809Z,95914.57
2019-01-15T18:14:03.527Z,95909.59
2019-01-15T18:16:56.900Z,95933.27
2019-01-15T18:20:02.442Z,95915.88
2019-01-15T18:22:55.369Z,95911.62
2019-01-15T18:25:48.355Z,95918.02
2019-01-15T18:28:38.515Z,95919.52
2019-01-15T18:31:17.991Z,95922.19
2019-01-15T18:34:00.696Z,95910.37
2019-01-15T18:36:49.735Z,95906.58
2019-01-15T18:39:38.645Z,95924.20
2019-01-15T18:42:30.477Z,95922.05
2019-01-15T18:45:16.373Z,95913.72
2019-01-15T18:48:06.815Z,95912.85
2019-01-15T18:51:12.048Z,95921.39
2019-01-15T18:53:55.473Z,95923.92
2019-01-15T18:56:44.606Z,95927.41
2019-01-15T18:59:39.642Z,95917.88
2019-01-15T19:02:25.292Z,95917.80
2019-01-15T19:05:19.689Z,95919.86
2019-01-15T19:08:17.333Z,95927.00
2019-01-15T19:11:14.960Z,95934.41
2019-01-15T19:14:14.457Z,95936.97
2019-01-15T19:17:10.788Z,95961.51
2019-01-15T19:19:57.403Z,95939.57
2019-01-15T19:22:53.761Z,95936.86
2019-01-15T19:25:44.457Z,95943.66
2019-01-15T19:28:35.974Z,95961.72
2019-01-15T19:31:24.859Z,95937.89
2019-01-15T19:34:24.127Z,95925.92
2019-01-15T19:37:14.390Z,95937.81
2019-01-15T19:39:59.760Z,95935.81
2019-01-15T19:42:48.917Z,95946.67
2019-01-15T19:45:39.215Z,95932.27
2019-01-15T19:48:29.528Z,95962.08
2019-01-15T19:51:13.434Z,95934.49
2019-01-15T19:54:02.556Z,95925.80
2019-01-15T19:56:52.995Z,95929.75
2019-01-15T19:59:41.875Z,95930.58
2019-01-15T20:02:32.367Z,95922.53
2019-01-15T20:08:57.965Z,95900.98
2019-01-15T20:11:51.639Z,95913.41
2019-01-15T20:18:17.541Z,95921.00
2019-01-15T20:20:55.115Z,95939.44
2019-01-15T20:23:43.977Z,95906.70
2019-01-15T20:26:31.254Z,95950.51
2019-01-15T20:29:27.367Z,95932.53
2019-01-15T20:32:29.870Z,95944.03
2019-01-15T20:35:35.567Z,95944.94
2019-01-15T20:38:31.313Z,95957.14
2019-01-15T20:41:15.366Z,95958.17
2019-01-15T20:44:05.511Z,95950.23
2019-01-15T20:47:07.644Z,95975.44
2019-01-15T20:50:12.562Z,95958.69
2019-01-15T20:53:01.823Z,95955.34
2019-01-15T20:55:50.738Z,95968.37
2019-01-15T20:58:52.967Z,95961.61
2019-01-15T21:01:40.211Z,95967.63
2019-01-15T21:04:35.391Z,95978.33
2019-01-15T21:07:28.395Z,95973.94
2019-01-15T21:10:24.392Z,95816.28
2019-01-15T21:13:13.124Z,95961.69
2019-01-15T21:15:59.768Z,95957.50
2019-01-15T21:18:47.936Z,95946.27
2019-01-15T21:21:41.232Z,95935.91
2019-01-15T21:24:49.464Z,95956.08
2019-01-15T21:27:48.665Z,95939.88
2019-01-15T21:30:35.136Z,95931.45
2019-01-15T21:33:30.961Z,95938.52
2019-01-15T21:36:14.875Z,95942.98
2019-01-15T21:39:01.608Z,95944.68
2019-01-15T21:41:57.951Z,95919.30
2019-01-15T21:44:45.850Z,95922.23
2019-01-15T21:47:45.329Z,95923.05
2019-01-15T21:50:35.609Z,95902.20
2019-01-15T21:53:38.815Z,95917.08
2019-01-15T21:56:25.608Z,95893.84
2019-01-15T21:59:14.431Z,95896.23
2019-01-15T22:02:19.922Z,95904.73
2019-01-15T22:05:19.339Z,95914.91
2019-01-15T22:08:28.957Z,95927.42
2019-01-15T22:11:36.674Z,95913.42
2019-01-15T22:14:26.086Z,95913.27
2019-01-15T22:17:15.040Z,95925.77
2019-01-15T22:20:17.202Z,95933.81
2019-01-15T22:23:07.948Z,95942.44
2019-01-15T22:26:01.088Z,95936.12
2019-01-15T22:28:55.758Z,95931.41
2019-01-15T22:31:58.120Z,95943.94
2019-01-15T22:35:00.362Z,95936.70
2019-01-15T22:37:49.102Z,95940.43
2019-01-15T22:40:40.500Z,95926.00
2019-01-15T22:43:29.899Z,95937.91
2019-01-15T22:46:32.031Z,95928.14
2019-01-15T22:49:21.052Z,95915.44
2019-01-15T22:52:07.327Z,95918.27
2019-01-15T22:55:03.335Z,95910.42
2019-01-15T22:57:56.269Z,95893.84
2019-01-15T23:01:03.739Z,95895.11
2019-01-15T23:04:02.745Z,95903.47
2019-01-15T23:07:01.991Z,95903.64
2019-01-15T23:09:58.210Z,95904.98
2019-01-15T23:12:48.547Z,95895.17
2019-01-15T23:15:29.634Z,95884.66
2019-01-15T23:18:18.854Z,95873.35
2019-01-15T23:21:12.255Z,95891.51
2019-01-15T23:24:05.470Z,95868.59
2019-01-15T23:26:48.348Z,95866.25
2019-01-15T23:29:40.492Z,95876.63
2019-01-15T23:32:21.054Z,95871.73
2019-01-15T23:35:02.337Z,95779.17
2019-01-15T23:37:51.497Z,95877.81
2019-01-15T23:40:44.801Z,95877.34
2019-01-15T23:43:29.709Z,95883.75
2019-01-15T23:46:22.627Z,95870.80
2019-01-15T23:49:30.929Z,95873.27
2019-01-15T23:52:36.320Z,95876.23
2019-01-15T23:55:34.143Z,95880.78
2019-01-15T23:58:23.594Z,95879.73
